createdAt,value
2023-01-06T00:01:40.079Z,101067.72
2023-01-06T00:04:11.603Z,101058.03
2023-01-06T00:06:43.001Z,101034.25
2023-01-06T00:09:14.268Z,101031.59
2023-01-06T00:11:45.526Z,101047.44
2023-01-06T00:14:17.174Z,101046.56
2023-01-06T00:16:48.482Z,101049.19
2023-01-06T00:19:19.988Z,101053.59
2023-01-06T00:21:51.271Z,101048.31
2023-01-06T00:24:22.546Z,101028.94
2023-01-06T00:26:53.815Z,101043.88
2023-01-06T00:29:25.127Z,101038.59
2023-01-06T00:31:59.850Z,101009.53
2023-01-06T00:34:31.111Z,101024.50
2023-01-06T00:37:02.481Z,101026.25
2023-01-06T00:39:33.905Z,101025.38
2023-01-06T00:42:05.873Z,101017.44
2023-01-06T00:44:38.966Z,101014.78
2023-01-06T00:47:11.276Z,101007.72
2023-01-06T00:49:42.579Z,100998.91
2023-01-06T00:52:14.212Z,100994.47
2023-01-06T00:54:45.490Z,100990.06
2023-01-06T00:57:16.748Z,100996.22
2023-01-06T00:59:48.039Z,100989.16
2023-01-06T01:02:19.563Z,100987.38
2023-01-06T01:04:50.994Z,100984.72
2023-01-06T01:07:22.337Z,100973.25
2023-01-06T01:09:53.899Z,100973.25
2023-01-06T01:12:25.172Z,100975.03
2023-01-06T01:14:56.518Z,100967.94
2023-01-06T01:17:30.216Z,100966.19
2023-01-06T01:20:01.644Z,100967.06
2023-01-06T01:22:33.103Z,100947.72
2023-01-06T01:25:04.731Z,100924.88
2023-01-06T01:27:36.022Z,100958.22
2023-01-06T01:30:07.874Z,100947.63
2023-01-06T01:32:39.144Z,100935.31
2023-01-06T01:35:11.513Z,100937.97
2023-01-06T01:37:42.813Z,100930.94
2023-01-06T01:40:14.165Z,100937.06
2023-01-06T01:42:45.419Z,100940.59
2023-01-06T01:45:27.983Z,100947.63
2023-01-06T01:48:06.335Z,100946.72
2023-01-06T01:50:43.864Z,100947.63
2023-01-06T01:53:22.481Z,100938.81
2023-01-06T01:55:56.727Z,100930.00
2023-01-06T01:58:34.284Z,100934.38
2023-01-06T02:01:08.640Z,100918.53
2023-01-06T02:03:42.481Z,100912.34
2023-01-06T02:06:18.020Z,100919.38
2023-01-06T02:09:09.924Z,100929.91
2023-01-06T02:11:42.009Z,100914.06
2023-01-06T02:14:16.069Z,100922.81
2023-01-06T02:17:01.956Z,100907.00
2023-01-06T02:20:00.803Z,100903.44
2023-01-06T02:22:47.169Z,100920.13
2023-01-06T02:25:47.597Z,100900.69
2023-01-06T02:28:39.768Z,100912.16
2023-01-06T02:31:48.751Z,100909.47
2023-01-06T02:34:25.946Z,100895.34
2023-01-06T02:37:12.474Z,100896.19
2023-01-06T02:40:10.261Z,100875.94
2023-01-06T02:42:49.844Z,100888.22
2023-01-06T02:45:34.215Z,100877.63
2023-01-06T02:48:18.028Z,100874.09
2023-01-06T02:51:01.681Z,100876.66
2023-01-06T02:53:44.927Z,100872.22
2023-01-06T02:56:20.829Z,100856.41
2023-01-06T02:59:02.353Z,100866.03
2023-01-06T03:01:39.037Z,100858.06
2023-01-06T03:04:18.719Z,100840.41
2023-01-06T03:06:53.008Z,100851.84
2023-01-06T03:09:29.624Z,100832.50
2023-01-06T03:12:05.996Z,100843.88
2023-01-06T03:14:41.606Z,100843.88
2023-01-06T03:17:13.186Z,100838.50
2023-01-06T03:19:44.812Z,100826.19
2023-01-06T03:22:17.567Z,100813.91
2023-01-06T03:24:48.997Z,100784.00
2023-01-06T03:27:25.381Z,100832.22
2023-01-06T03:29:56.818Z,100830.44
2023-01-06T03:32:42.468Z,100805.88
2023-01-06T03:35:22.646Z,100830.41
2023-01-06T03:38:13.303Z,100811.97
2023-01-06T03:40:55.872Z,100813.72
2023-01-06T03:44:00.575Z,100820.66
2023-01-06T03:46:41.817Z,100793.41
2023-01-06T03:49:30.175Z,100804.75
2023-01-06T03:52:26.380Z,100806.50
2023-01-06T03:55:05.403Z,100803.94
2023-01-06T03:57:39.868Z,100806.50
2023-01-06T04:00:16.586Z,100783.69
2023-01-06T04:02:48.913Z,100791.53
2023-01-06T04:05:23.458Z,100779.22
2023-01-06T04:07:55.025Z,100783.59
2023-01-06T04:10:26.322Z,100802.00
2023-01-06T04:12:57.646Z,100774.75
2023-01-06T04:15:29.398Z,100780.03
2023-01-06T04:18:00.853Z,100784.28
2023-01-06T04:20:32.194Z,100785.13
2023-01-06T04:23:03.468Z,100776.28
2023-01-06T04:25:34.818Z,100761.31
2023-01-06T04:28:06.069Z,100756.78
2023-01-06T04:30:37.411Z,100739.31
2023-01-06T04:33:08.660Z,100749.78
2023-01-06T04:35:39.930Z,100746.25
2023-01-06T04:38:11.218Z,100754.16
2023-01-06T04:40:43.060Z,100751.47
2023-01-06T04:43:16.164Z,100746.16
2023-01-06T04:45:47.608Z,100747.91
2023-01-06T04:48:19.052Z,100747.91
2023-01-06T04:50:50.366Z,100746.16
2023-01-06T04:53:21.646Z,100740.84
2023-01-06T04:55:52.913Z,100733.75
2023-01-06T04:58:24.189Z,100713.47
2023-01-06T05:01:03.434Z,100714.34
2023-01-06T05:03:35.910Z,100691.53
2023-01-06T05:06:12.146Z,100703.75
2023-01-06T05:08:44.005Z,100707.25
2023-01-06T05:11:21.403Z,100701.13
2023-01-06T05:13:53.736Z,100704.69
2023-01-06T05:16:26.876Z,100719.59
2023-01-06T05:18:58.705Z,100704.56
2023-01-06T05:21:32.491Z,100698.41
2023-01-06T05:24:04.520Z,100650.25
2023-01-06T05:26:35.775Z,100699.28
2023-01-06T05:29:07.022Z,100687.03
2023-01-06T05:31:38.307Z,100702.81
2023-01-06T05:34:12.710Z,100685.28
2023-01-06T05:36:44.033Z,100690.47
2023-01-06T05:39:15.415Z,100663.44
2023-01-06T05:41:46.853Z,100707.22
2023-01-06T05:44:20.666Z,100704.56
2023-01-06T05:46:52.111Z,100680.84
2023-01-06T05:49:23.365Z,100680.81
2023-01-06T05:51:54.621Z,100686.88
2023-01-06T05:54:25.875Z,100665.00
2023-01-06T05:56:57.267Z,100694.91
2023-01-06T05:59:28.502Z,100683.44
2023-01-06T06:01:59.829Z,100691.31
2023-01-06T06:04:31.167Z,100692.13
2023-01-06T06:07:02.500Z,100699.22
2023-01-06T06:09:33.797Z,100679.03
2023-01-06T06:12:05.283Z,100674.56
2023-01-06T06:14:36.576Z,100679.78
2023-01-06T06:17:07.846Z,100678.91
2023-01-06T06:19:39.285Z,100677.16
2023-01-06T06:22:10.888Z,100668.34
2023-01-06T06:24:42.282Z,100664.81
2023-01-06T06:27:13.775Z,100654.28
2023-01-06T06:29:45.135Z,100675.31
2023-01-06T06:32:16.429Z,100642.84
2023-01-06T06:34:47.719Z,100662.97
2023-01-06T06:37:19.034Z,100628.69
2023-01-06T06:39:50.322Z,100657.72
2023-01-06T06:42:21.587Z,100657.63
2023-01-06T06:44:52.879Z,100649.72
2023-01-06T06:47:24.161Z,100657.63
2023-01-06T06:49:55.555Z,100660.25
2023-01-06T06:52:26.932Z,100666.47
2023-01-06T06:54:58.289Z,100648.91
2023-01-06T06:57:29.675Z,100648.75
2023-01-06T07:00:00.954Z,100654.06
2023-01-06T07:02:32.321Z,100652.25
2023-01-06T07:05:04.222Z,100642.53
2023-01-06T07:07:35.543Z,100639.13
2023-01-06T07:10:07.187Z,100640.72
2023-01-06T07:12:38.459Z,100631.91
2023-01-06T07:15:10.505Z,100633.63
2023-01-06T07:17:42.114Z,100616.13
2023-01-06T07:20:13.429Z,100601.19
2023-01-06T07:22:45.170Z,100631.00
2023-01-06T07:25:16.499Z,100631.00
2023-01-06T07:27:52.562Z,100608.16
2023-01-06T07:30:25.172Z,100617.75
2023-01-06T07:32:56.525Z,100615.16
2023-01-06T07:35:28.340Z,100607.16
2023-01-06T07:38:04.766Z,100606.25
2023-01-06T07:40:37.104Z,100606.25
2023-01-06T07:43:10.533Z,100605.38
2023-01-06T07:45:41.859Z,100605.34
2023-01-06T07:48:13.308Z,100597.41
2023-01-06T07:50:44.737Z,100587.78
2023-01-06T07:53:16.130Z,100571.97
2023-01-06T07:55:52.524Z,100575.50
2023-01-06T07:58:24.240Z,100584.22
2023-01-06T08:00:55.570Z,100575.53
2023-01-06T08:03:26.944Z,100588.56
2023-01-06T08:05:58.301Z,100568.41
2023-01-06T08:08:29.630Z,100569.34
2023-01-06T08:11:00.970Z,100557.00
2023-01-06T08:13:32.436Z,100561.28
2023-01-06T08:16:05.957Z,100573.50
2023-01-06T08:18:38.133Z,100556.88
2023-01-06T08:21:10.863Z,100566.44
2023-01-06T08:23:42.659Z,100547.97
2023-01-06T08:26:17.549Z,100565.53
2023-01-06T08:28:49.324Z,100569.03
2023-01-06T08:31:22.228Z,100559.47
2023-01-06T08:33:53.728Z,100585.00
2023-01-06T08:36:25.376Z,100574.41
2023-01-06T08:38:56.678Z,100553.41
2023-01-06T08:41:28.016Z,100541.09
2023-01-06T08:43:59.466Z,100553.50
2023-01-06T08:46:30.821Z,100561.34
2023-01-06T08:49:02.163Z,100555.13
2023-01-06T08:51:34.815Z,100555.13
2023-01-06T08:54:06.223Z,100568.22
2023-01-06T08:56:39.089Z,100574.38
2023-01-06T08:59:14.076Z,100569.94
2023-01-06T09:01:45.524Z,100570.78
2023-01-06T09:04:16.939Z,100556.88
2023-01-06T09:06:48.388Z,100562.09
2023-01-06T09:09:19.709Z,100575.19
2023-01-06T09:11:51.075Z,100566.31
2023-01-06T09:14:22.419Z,100550.56
2023-01-06T09:16:54.156Z,100566.47
2023-01-06T09:19:25.459Z,100574.22
2023-01-06T09:21:58.272Z,100561.91
2023-01-06T09:24:30.566Z,100578.59
2023-01-06T09:27:01.919Z,100587.41
2023-01-06T09:29:33.319Z,100590.97
2023-01-06T09:32:04.880Z,100591.88
2023-01-06T09:34:36.277Z,100599.03
2023-01-06T09:37:08.063Z,100585.03
2023-01-06T09:39:39.824Z,100591.19
2023-01-06T09:42:16.984Z,100595.59
2023-01-06T09:44:58.586Z,100584.09
2023-01-06T09:47:42.365Z,100592.16
2023-01-06T09:50:21.090Z,100580.69
2023-01-06T09:52:58.421Z,100607.06
2023-01-06T09:55:36.083Z,100592.06
2023-01-06T09:58:15.062Z,100602.69
2023-01-06T10:00:52.665Z,100613.31
2023-01-06T10:03:26.453Z,100606.41
2023-01-06T10:06:26.636Z,100607.09
2023-01-06T10:09:13.473Z,100611.44
2023-01-06T10:12:01.477Z,100613.16
2023-01-06T10:14:39.477Z,100615.78
2023-01-06T10:17:24.589Z,100614.03
2023-01-06T10:20:14.357Z,100610.53
2023-01-06T10:23:00.561Z,100609.59
2023-01-06T10:25:38.153Z,100618.41
2023-01-06T10:28:30.361Z,100612.16
2023-01-06T10:31:07.542Z,100605.94
2023-01-06T10:33:46.364Z,100606.78
2023-01-06T10:36:26.014Z,100609.34
2023-01-06T10:39:00.960Z,100610.06
2023-01-06T10:41:49.224Z,100586.16
2023-01-06T10:44:20.672Z,100603.50
2023-01-06T10:46:52.069Z,100622.81
2023-01-06T10:49:23.686Z,100605.16
2023-01-06T10:52:00.138Z,100615.53
2023-01-06T10:54:33.935Z,100608.41
2023-01-06T10:57:14.758Z,100617.16
2023-01-06T11:00:13.478Z,100618.84
2023-01-06T11:03:14.201Z,100618.84
2023-01-06T11:06:30.135Z,100614.59
2023-01-06T11:09:26.426Z,100605.94
2023-01-06T11:12:00.977Z,100630.69
2023-01-06T11:14:33.736Z,100627.97
2023-01-06T11:17:15.854Z,100634.94
2023-01-06T11:20:05.893Z,100639.25
2023-01-06T11:22:39.323Z,100650.88
2023-01-06T11:25:19.457Z,100650.13
2023-01-06T11:28:14.209Z,100629.06
2023-01-06T11:30:53.934Z,100655.22
2023-01-06T11:33:28.095Z,100633.06
2023-01-06T11:36:07.496Z,100651.78
2023-01-06T11:38:56.006Z,100640.47
2023-01-06T11:41:44.446Z,100634.66
2023-01-06T11:44:23.032Z,100660.91
2023-01-06T11:47:03.543Z,100663.00
2023-01-06T11:49:43.578Z,100681.38
2023-01-06T11:52:17.723Z,100682.19
2023-01-06T11:54:56.993Z,100683.75
2023-01-06T11:57:40.680Z,100685.06
2023-01-06T12:00:19.151Z,100688.03
2023-01-06T12:03:08.674Z,100693.47
2023-01-06T12:06:21.930Z,100694.38
2023-01-06T12:09:06.079Z,100692.72
2023-01-06T12:11:52.189Z,100700.63
2023-01-06T12:14:29.655Z,100706.75
2023-01-06T12:17:14.202Z,100710.13
2023-01-06T12:19:53.438Z,100727.78
2023-01-06T12:22:33.498Z,100727.88
2023-01-06T12:25:11.647Z,100726.28
2023-01-06T12:27:48.503Z,100736.22
2023-01-06T12:30:34.258Z,100720.47
2023-01-06T12:33:15.550Z,100724.97
2023-01-06T12:35:50.888Z,100727.50
2023-01-06T12:38:42.954Z,100721.19
2023-01-06T12:41:24.465Z,100722.00
2023-01-06T12:44:17.590Z,100724.56
2023-01-06T12:47:06.991Z,100714.63
2023-01-06T12:49:48.041Z,100715.28
2023-01-06T12:52:30.374Z,100723.31
2023-01-06T12:55:02.766Z,100717.09
2023-01-06T12:57:58.602Z,100696.97
2023-01-06T13:00:56.391Z,100734.97
2023-01-06T13:04:20.683Z,100727.19
2023-01-06T13:07:22.347Z,100725.72
2023-01-06T13:10:11.732Z,100753.13
2023-01-06T13:12:43.047Z,100755.84
2023-01-06T13:15:21.549Z,100746.25
2023-01-06T13:18:08.395Z,100752.44
2023-01-06T13:21:13.285Z,100765.72
2023-01-06T13:24:22.302Z,100763.94
2023-01-06T13:27:15.886Z,100744.59
2023-01-06T13:30:09.667Z,100770.84
2023-01-06T13:33:09.673Z,100767.22
2023-01-06T13:36:05.358Z,100764.50
2023-01-06T13:38:57.426Z,100748.53
2023-01-06T13:41:37.020Z,100764.34
2023-01-06T13:44:25.548Z,100739.69
2023-01-06T13:47:07.074Z,100762.53
2023-01-06T13:49:41.355Z,100761.66
2023-01-06T13:52:39.356Z,100774.00
2023-01-06T13:55:19.618Z,100763.34
2023-01-06T13:57:50.980Z,100763.31
2023-01-06T14:00:25.193Z,100753.66
2023-01-06T14:02:56.556Z,100769.44
2023-01-06T14:05:28.450Z,100775.66
2023-01-06T14:08:02.731Z,100773.03
2023-01-06T14:10:38.283Z,100779.28
2023-01-06T14:13:39.477Z,100781.16
2023-01-06T14:16:12.854Z,100782.22
2023-01-06T14:18:51.636Z,100795.50
2023-01-06T14:21:27.657Z,100798.28
2023-01-06T14:24:05.933Z,100793.97
2023-01-06T14:27:06.973Z,100802.88
2023-01-06T14:29:44.263Z,100803.81
2023-01-06T14:32:15.672Z,100815.31
2023-01-06T14:34:55.915Z,100808.31
2023-01-06T14:37:41.609Z,100817.22
2023-01-06T14:40:39.211Z,100809.41
2023-01-06T14:43:38.282Z,100813.91
2023-01-06T14:46:38.124Z,100821.97
2023-01-06T14:49:37.450Z,100828.25
2023-01-06T14:52:23.296Z,100827.41
2023-01-06T14:54:54.660Z,100806.38
2023-01-06T14:57:32.740Z,100809.94
2023-01-06T15:00:36.546Z,100829.31
2023-01-06T15:03:25.093Z,100828.50
2023-01-06T15:06:20.952Z,100827.69
2023-01-06T15:08:52.492Z,100836.56
2023-01-06T15:11:29.898Z,100833.09
2023-01-06T15:14:01.272Z,100827.03
2023-01-06T15:16:37.862Z,100859.59
2023-01-06T15:19:14.317Z,100838.50
2023-01-06T15:21:47.564Z,100852.56
2023-01-06T15:24:22.550Z,100852.59
2023-01-06T15:27:02.482Z,100857.91
2023-01-06T15:29:34.504Z,100835.94
2023-01-06T15:32:11.785Z,100835.03
2023-01-06T15:34:46.479Z,100842.97
2023-01-06T15:37:22.545Z,100849.13
2023-01-06T15:39:54.193Z,100838.63
2023-01-06T15:42:29.412Z,100850.06
2023-01-06T15:47:45.711Z,100844.84
2023-01-06T15:50:21.212Z,100857.19
2023-01-06T15:52:59.988Z,100858.91
2023-01-06T15:55:34.731Z,100865.97
2023-01-06T15:58:26.282Z,100855.41
2023-01-06T16:01:02.860Z,100860.69
2023-01-06T16:03:35.663Z,100868.63
2023-01-06T16:06:12.781Z,100860.72
2023-01-06T16:08:44.329Z,100869.56
2023-01-06T16:11:15.563Z,100877.50
2023-01-06T16:13:56.127Z,100881.03
2023-01-06T16:16:32.916Z,100868.75
2023-01-06T16:19:09.221Z,100876.69
2023-01-06T16:21:42.689Z,100868.81
2023-01-06T16:24:20.932Z,100861.78
2023-01-06T16:27:04.683Z,100875.88
2023-01-06T16:29:38.197Z,100879.41
2023-01-06T16:32:30.019Z,100875.91
2023-01-06T16:35:04.911Z,100877.66
2023-01-06T16:37:36.249Z,100863.66
2023-01-06T16:40:08.170Z,100871.56
2023-01-06T16:42:39.583Z,100878.59
2023-01-06T16:45:25.663Z,100875.09
2023-01-06T16:47:57.759Z,100875.97
2023-01-06T16:50:40.744Z,100873.34
2023-01-06T16:53:18.122Z,100877.75
2023-01-06T16:55:54.910Z,100873.34
2023-01-06T16:58:31.229Z,100880.38
2023-01-06T17:01:09.477Z,100884.78
2023-01-06T17:03:41.448Z,100875.97
2023-01-06T17:06:19.354Z,100885.66
2023-01-06T17:08:54.236Z,100890.03
2023-01-06T17:11:27.412Z,100895.31
2023-01-06T17:14:04.641Z,100881.25
2023-01-06T17:16:40.082Z,100897.06
2023-01-06T17:19:28.705Z,100894.41
2023-01-06T17:22:21.481Z,100901.44
2023-01-06T17:24:53.139Z,100898.78
2023-01-06T17:27:27.283Z,100909.34
2023-01-06T17:30:01.767Z,100915.50
2023-01-06T17:32:40.493Z,100915.47
2023-01-06T17:35:32.383Z,100915.47
2023-01-06T17:38:16.592Z,100910.16
2023-01-06T17:40:48.554Z,100911.06
2023-01-06T17:43:33.250Z,100911.91
2023-01-06T17:46:18.826Z,100910.13
2023-01-06T17:49:30.382Z,100913.59
2023-01-06T17:52:21.177Z,100895.94
2023-01-06T17:55:21.286Z,100899.44
2023-01-06T17:57:57.882Z,100919.66
2023-01-06T18:00:35.101Z,100927.53
2023-01-06T18:03:23.451Z,100931.03
2023-01-06T18:06:00.778Z,100920.47
2023-01-06T18:08:35.822Z,100915.16
2023-01-06T18:11:10.016Z,100935.41
2023-01-06T18:13:42.391Z,100938.03
2023-01-06T18:16:27.706Z,100938.91
2023-01-06T18:19:17.619Z,100941.53
2023-01-06T18:21:49.771Z,100936.22
2023-01-06T18:24:34.793Z,100937.94
2023-01-06T18:27:33.375Z,100937.91
2023-01-06T18:30:21.039Z,100948.44
2023-01-06T18:32:52.455Z,100921.19
2023-01-06T18:35:28.497Z,100944.94
2023-01-06T18:38:02.352Z,100951.94
2023-01-06T18:40:37.098Z,100933.47
2023-01-06T18:43:34.944Z,100959.84
2023-01-06T18:46:17.555Z,100950.16
2023-01-06T18:48:48.945Z,100948.44
2023-01-06T18:51:22.711Z,100939.63
2023-01-06T18:53:54.135Z,100960.75
2023-01-06T18:56:26.914Z,100946.66
2023-01-06T18:58:58.947Z,100966.88
2023-01-06T19:01:50.801Z,100960.75
2023-01-06T19:04:34.307Z,100965.13
2023-01-06T19:07:27.499Z,100965.97
2023-01-06T19:09:58.916Z,100969.47
2023-01-06T19:12:32.071Z,100968.56
2023-01-06T19:15:21.744Z,100964.16
2023-01-06T19:17:56.870Z,100958.81
2023-01-06T19:20:34.880Z,100966.75
2023-01-06T19:23:26.697Z,100965.00
2023-01-06T19:26:05.360Z,100926.28
2023-01-06T19:28:36.789Z,100964.94
2023-01-06T19:31:19.127Z,100960.47
2023-01-06T19:33:59.848Z,100975.47
2023-01-06T19:36:37.236Z,100974.56
2023-01-06T19:39:23.539Z,100968.38
2023-01-06T19:41:59.739Z,100954.31
2023-01-06T19:44:33.731Z,100963.97
2023-01-06T19:47:17.974Z,100962.19
2023-01-06T19:49:53.237Z,100975.41
2023-01-06T19:52:36.087Z,100983.31
2023-01-06T19:55:24.033Z,100974.47
2023-01-06T19:58:12.085Z,100971.78
2023-01-06T20:00:48.784Z,100970.94
2023-01-06T20:03:37.367Z,100962.09
2023-01-06T20:06:08.645Z,100965.63
2023-01-06T20:08:41.290Z,100972.66
2023-01-06T20:11:16.444Z,100955.91
2023-01-06T20:13:48.347Z,100962.88
2023-01-06T20:16:19.839Z,100970.84
2023-01-06T20:18:51.201Z,100969.97
2023-01-06T20:21:22.455Z,100971.69
2023-01-06T20:23:53.742Z,100959.34
2023-01-06T20:26:25.456Z,100976.03
2023-01-06T20:28:56.721Z,100977.75
2023-01-06T20:31:28.002Z,100981.22
2023-01-06T20:33:59.748Z,100982.91
2023-01-06T20:36:31.084Z,100979.34
2023-01-06T20:39:02.514Z,100962.59
2023-01-06T20:41:34.899Z,100974.88
2023-01-06T20:44:06.320Z,100968.72
2023-01-06T20:46:37.600Z,100951.91
2023-01-06T20:49:08.929Z,100963.34
2023-01-06T20:51:40.279Z,100959.75
2023-01-06T20:54:11.688Z,100959.66
2023-01-06T20:56:42.942Z,100978.13
2023-01-06T20:59:14.589Z,100955.16
2023-01-06T21:01:48.155Z,100970.19
2023-01-06T21:04:19.491Z,100962.16
2023-01-06T21:06:50.838Z,100960.41
2023-01-06T21:09:22.188Z,100965.69
2023-01-06T21:11:55.711Z,100966.53
2023-01-06T21:14:28.979Z,100954.25
2023-01-06T21:17:00.514Z,100967.50
2023-01-06T21:19:31.880Z,100944.63
2023-01-06T21:22:05.173Z,100965.84
2023-01-06T21:24:36.551Z,100953.53
2023-01-06T21:27:07.933Z,100961.56
2023-01-06T21:29:39.273Z,100975.69
2023-01-06T21:32:10.629Z,100957.31
2023-01-06T21:34:41.898Z,100953.00
2023-01-06T21:37:14.232Z,100943.38
2023-01-06T21:39:47.896Z,100940.66
2023-01-06T21:42:38.029Z,100958.28
2023-01-06T21:45:10.251Z,100963.50
2023-01-06T21:47:41.579Z,100960.88
2023-01-06T21:50:12.947Z,100947.66
2023-01-06T21:52:46.455Z,100957.25
2023-01-06T21:55:19.131Z,100951.16
2023-01-06T21:57:50.719Z,100968.78
2023-01-06T22:00:21.977Z,100974.94
2023-01-06T22:02:54.644Z,100955.50
2023-01-06T22:05:27.145Z,100982.75
2023-01-06T22:07:59.655Z,100964.19
2023-01-06T22:10:31.085Z,100979.13
2023-01-06T22:13:03.779Z,100957.09
2023-01-06T22:15:35.316Z,100950.03
2023-01-06T22:18:07.292Z,100948.28
2023-01-06T22:20:38.978Z,100963.22
2023-01-06T22:23:13.999Z,100954.34
2023-01-06T22:25:45.330Z,100957.88
2023-01-06T22:28:17.707Z,100957.06
2023-01-06T22:30:51.453Z,100961.56
2023-01-06T22:33:22.903Z,100944.84
2023-01-06T22:36:00.450Z,100959.88
2023-01-06T22:38:32.148Z,100957.28
2023-01-06T22:41:04.642Z,100942.25
2023-01-06T22:43:35.970Z,100966.03
2023-01-06T22:46:07.283Z,100938.72
2023-01-06T22:48:39.637Z,100958.09
2023-01-06T22:51:10.911Z,100964.31
2023-01-06T22:53:42.347Z,100962.59
2023-01-06T22:56:13.779Z,100962.59
2023-01-06T22:58:45.055Z,100955.63
2023-01-06T23:01:17.382Z,100941.53
2023-01-06T23:03:48.857Z,100959.16
2023-01-06T23:06:20.394Z,100951.19
2023-01-06T23:09:00.276Z,100946.78
2023-01-06T23:11:32.717Z,100965.28
2023-01-06T23:14:04.019Z,100959.13
2023-01-06T23:16:36.660Z,100957.38
2023-01-06T23:19:10.942Z,100952.94
2023-01-06T23:21:44.557Z,100942.34
2023-01-06T23:24:15.916Z,100955.56
2023-01-06T23:26:48.432Z,100952.91
2023-01-06T23:29:20.885Z,100947.63
2023-01-06T23:31:53.172Z,100937.94
2023-01-06T23:34:24.533Z,100940.59
2023-01-06T23:36:58.869Z,100945.09
2023-01-06T23:39:31.199Z,100944.28
2023-01-06T23:42:05.311Z,100922.31
2023-01-06T23:44:36.670Z,100946.13
2023-01-06T23:47:08.327Z,100947.91
2023-01-06T23:49:39.682Z,100943.56
2023-01-06T23:52:11.017Z,100961.16
2023-01-06T23:54:42.466Z,100956.81
2023-01-06T23:57:16.027Z,100963.09
2023-01-06T23:59:47.312Z,100951.78
